This is the latest recevied weather packets stored in our database for station/object OK0BPL-5. If no packets are shown the sender has not sent any weather packets the latest 10 day(s).
| Time | Temp. | Humidity | Pressure | Rain* | Wind** | Luminosity | Snow |
|---|---|---|---|---|---|---|---|
| 1787668532 | 23.89° C | 44% | 1037.4 hPa | 0 mm | - | 68 W/m² | - |
| 1787667632 | 23.89° C | 43% | 1037.1 hPa | 0 mm | - | 69 W/m² | - |
| 1787667632 | 23.89° C | 43% | 1037.1 hPa | 0 mm | - | 69 W/m² | - |
| 1787666732 | 25° C | 41% | 1036.6 hPa | 0 mm | - | 79 W/m² | - |
| 1787666731 | 25° C | 41% | 1036.6 hPa | 0 mm | - | 79 W/m² | - |
| 1787665832 | 26.67° C | 38% | 1036.5 hPa | 0 mm | - | 217 W/m² | - |
| 1787665832 | 26.67° C | 38% | 1036.5 hPa | 0 mm | - | 217 W/m² | - |
| 1787664932 | 24.44° C | 41% | 1036.6 hPa | 0 mm | - | 115 W/m² | - |
| 1787664932 | 24.44° C | 41% | 1036.6 hPa | 0 mm | - | 115 W/m² | - |
| 1787664032 | 27.22° C | 36% | 1036 hPa | 0 mm | - | 225 W/m² | - |
| 1787664032 | 27.22° C | 36% | 1036 hPa | 0 mm | - | 225 W/m² | - |
| 1787663132 | 26.67° C | 36% | 1036 hPa | 0 mm | - | 196 W/m² | - |
| 1787663132 | 26.67° C | 36% | 1036 hPa | 0 mm | - | 196 W/m² | - |
| 1787662231 | 27.22° C | 36% | 1035.8 hPa | 0 mm | - | 239 W/m² | - |
| 1787662231 | 27.22° C | 36% | 1035.8 hPa | 0 mm | - | 239 W/m² | - |
| 1787661331 | 27.22° C | 35% | 1036 hPa | 0 mm | - | 261 W/m² | - |
| 1787661331 | 27.22° C | 35% | 1036 hPa | 0 mm | - | 261 W/m² | - |
| 1787660432 | 25.56° C | 40% | 1036.5 hPa | 0 mm | - | 254 W/m² | - |
| 1787660432 | 25.56° C | 40% | 1036.5 hPa | 0 mm | - | 254 W/m² | - |
| 1787659532 | 24.44° C | 43% | 1036.7 hPa | 0 mm | - | 184 W/m² | - |
| 1787659531 | 24.44° C | 43% | 1036.7 hPa | 0 mm | - | 184 W/m² | - |
| 1787658631 | 23.33° C | 45% | 1037 hPa | 0 mm | - | 120 W/m² | - |
| 1787658631 | 23.33° C | 45% | 1037 hPa | 0 mm | - | 120 W/m² | - |
| 1787657731 | 23.33° C | 45% | 1036.9 hPa | 0 mm | - | 105 W/m² | - |
| 1787656831 | 23.33° C | 44% | 1036.9 hPa | 0 mm | - | 114 W/m² | - |
* Rain latest hour (hover to see other rain measurements)
** Current wind speed in m/s (hover to see current wind gust speed)